Startpagina
METAR-TAF:

METAR-TAF

Vliegvelden :

Air Force Base Waterkloof

Waterkloof, Zuid-Afrika

breedte: 25-50S, lengte: 028-13E, hoogte: 1498 m

Actueel weer

Dit bericht is 43 minuten geleden gemaakt, om 10:00 UTC
Wind 5 kt uit het westen
Temperatuur 21°C
Vochtigheid 10%
Druk 1023 hPa

METAR: FAWK 251000Z AUTO 28005KT //// // ////// 21/M12 Q1023

Tijdstip: 12:43 (10:43 UTC)

Verwachting

Dit bericht is 4 uur en het 43 minuten geleden gemaakt, om 06:00 UTC
Verwachting geldig van 25 om 07 UTC tot 25 om 18 UTC
Wind 3 kt uit variabele richting
Zicht 10 km of meer
geen wolken onder 1500 m en geen cumulonimbus

TAF: FAWK 250600Z 2507/2518 VRB03KT CAVOK TX24/2512Z TN14/2518Z

Waarnemingen en weersverwachtingen van meer dan 4000 vliegvelden (METAR en TAF).

De beschikbare stations zijn de gele en rode punten op de kaart.

Ga met uw muis naar het station om de naam te zien.

Klik dan om waarnemingen en weersverwachtingen te zien.

kaart wijzigen: klik op de groene knoppen met een zwart kruis om in te zoomen, op de groene knop met een streepje om uit te zoomen of op de groene pijlen voor aangrenzende kaarten.


METAR-TAF: